Minocqua, WI (54548)

8:19 AM CDT on April 29, 2017 (GMT -0500)
1/2 mile west of Haskell Lake | | Change Station

Elev 932 ft 45.91 °N, 89.92 °W | Updated 10 seconds ago

Clear
Clear
34.5 °F
Feels Like 34 °F
N
2.7
Wind Variable Wind from South

Today
High -- | Low -- °F
--% Chance of Precip.
Yesterday
High -- | Low -- °F
Precip. -- in
Pressure 30.30 in
Visibility 10.0 miles
Clouds Clear
Windchill 34 °F
Dew Point 26 °F
Humidity 71%
Rainfall 0.00 in
Snow Depth Not available.
5:49 AM 8:04 PM
Waxing Crescent, 13% visible
METAR KARV 291255Z AUTO 00000KT 10SM CLR 03/M03 A3030 RMK AO2 T00251029
Pressure 30.30 in
Visibility 10.0 miles
Clouds Clear
Windchill 34 °F
Dew Point 26 °F
Humidity 71%
Rainfall 0.00 in
Snow Depth Not available.
5:49 AM 8:04 PM
Waxing Crescent, 13% visible
METAR KARV 291255Z AUTO 00000KT 10SM CLR 03/M03 A3030 RMK AO2 T00251029

Get Severe Weather Alerts

Thanks for signing up!

Be on the lookout for a verification email in your inbox.

You'll start receiving the daily forecast at 8 AM.

×

10-Day Weather Forecast

Almanac

Astronomy

Apr. 29, 2017 Rise Set
Actual Time
Civil Twilight
Nautical Twilight
Astronomical Twilight
Moon
Length of Visible Light
Length of Day
Tomorrow will be .
, % of the Moon is Illuminated

Today's Extremes

State Highs State Lows

Community

WunderPhotos

WunderBlog® & News

Nearby

Air Quality

  Air Quality AQ Index Pollutant
Not available.

Snow Depth

Station Depth Elevation

Earthquake Activity

City Distance Mag. Time & Date
Minimum magnitude displayed is 2.5.

Coastal Water Temperatures

Place Temperature

Stations

Nearby Weather Stations

Station Location Temp. Windchill Dew Point Humidity Wind Precip. Elev Updated Type
                   

Watches & Warnings

There are currently no watches in effect.